createdAt,value
2022-08-26T00:01:54.662Z,20.83
2022-08-26T00:04:25.331Z,20.84
2022-08-26T00:06:55.070Z,20.83
2022-08-26T00:09:25.214Z,20.82
2022-08-26T00:11:54.267Z,20.83
2022-08-26T00:14:28.334Z,20.86
2022-08-26T00:16:58.412Z,20.88
2022-08-26T00:19:25.422Z,20.93
2022-08-26T00:21:53.473Z,20.95
2022-08-26T00:24:21.695Z,20.99
2022-08-26T00:26:49.921Z,21.01
2022-08-26T00:29:19.408Z,21.06
2022-08-26T00:31:48.601Z,21.09
2022-08-26T00:34:16.819Z,21.13
2022-08-26T00:36:47.776Z,21.15
2022-08-26T00:39:19.949Z,21.17
2022-08-26T00:41:48.273Z,21.18
2022-08-26T00:44:15.288Z,21.22
2022-08-26T00:46:48.958Z,21.23
2022-08-26T00:49:37.363Z,21.26
2022-08-26T00:52:11.942Z,21.26
2022-08-26T00:54:49.487Z,21.25
2022-08-26T00:57:20.128Z,21.23
2022-08-26T00:59:57.222Z,21.21
2022-08-26T01:02:25.423Z,21.20
2022-08-26T01:04:58.883Z,21.17
2022-08-26T01:07:31.423Z,21.13
2022-08-26T01:10:01.399Z,21.06
2022-08-26T01:12:33.636Z,20.99
2022-08-26T01:15:02.132Z,20.99
2022-08-26T01:17:29.094Z,21.03
2022-08-26T01:20:28.121Z,20.99
2022-08-26T01:23:06.846Z,20.98
2022-08-26T01:25:43.094Z,21.03
2022-08-26T01:28:19.363Z,21.01
2022-08-26T01:30:52.873Z,21.02
2022-08-26T01:33:28.938Z,21.03
2022-08-26T01:35:56.510Z,20.99
2022-08-26T01:38:23.837Z,20.98
2022-08-26T01:40:51.418Z,20.92
2022-08-26T01:43:27.505Z,20.89
2022-08-26T01:45:56.853Z,20.86
2022-08-26T01:48:31.849Z,20.84
2022-08-26T01:51:03.336Z,20.80
2022-08-26T01:53:31.300Z,20.79
2022-08-26T01:56:02.318Z,20.75
2022-08-26T01:58:41.623Z,20.77
2022-08-26T02:01:09.820Z,20.75
2022-08-26T02:04:26.605Z,20.74
2022-08-26T02:06:56.813Z,20.70
2022-08-26T02:09:25.007Z,20.71
2022-08-26T02:11:52.935Z,20.71
2022-08-26T02:14:30.383Z,20.73
2022-08-26T02:16:57.500Z,20.70
2022-08-26T02:19:32.656Z,20.71
2022-08-26T02:22:05.858Z,20.68
2022-08-26T02:25:00.869Z,20.64
2022-08-26T02:27:33.760Z,20.62
2022-08-26T02:30:07.258Z,20.59
2022-08-26T02:32:34.254Z,20.59
2022-08-26T02:35:02.189Z,20.59
2022-08-26T02:37:32.282Z,20.57
2022-08-26T02:40:01.900Z,20.57
2022-08-26T02:42:29.974Z,20.56
2022-08-26T02:44:56.893Z,20.57
2022-08-26T02:47:25.284Z,20.59
2022-08-26T02:49:55.988Z,20.63
2022-08-26T02:52:23.000Z,20.64
2022-08-26T02:54:50.015Z,20.62
2022-08-26T02:57:17.747Z,20.61
2022-08-26T02:59:44.641Z,20.61
2022-08-26T03:02:12.385Z,20.62
2022-08-26T03:04:40.297Z,20.61
2022-08-26T03:07:07.540Z,20.60
2022-08-26T03:09:35.877Z,20.59
2022-08-26T03:12:03.192Z,20.56
2022-08-26T03:14:30.065Z,20.54
2022-08-26T03:16:56.940Z,20.50
2022-08-26T03:19:25.808Z,20.51
2022-08-26T03:21:58.039Z,20.48
2022-08-26T03:24:26.254Z,20.46
2022-08-26T03:26:53.278Z,20.44
2022-08-26T03:29:40.733Z,20.39
2022-08-26T03:32:09.694Z,20.33
2022-08-26T03:34:37.691Z,20.28
2022-08-26T03:37:06.084Z,20.28
2022-08-26T03:39:32.933Z,20.28
2022-08-26T03:42:00.366Z,20.25
2022-08-26T03:44:27.600Z,20.27
2022-08-26T03:46:55.009Z,20.30
2022-08-26T03:49:22.283Z,20.31
2022-08-26T03:51:49.342Z,20.30
2022-08-26T03:54:17.881Z,20.30
2022-08-26T03:56:46.623Z,20.30
2022-08-26T03:59:13.615Z,20.26
2022-08-26T04:01:40.951Z,20.26
2022-08-26T04:04:08.107Z,20.24
2022-08-26T04:06:44.728Z,20.22
2022-08-26T04:09:19.783Z,20.23
2022-08-26T04:14:24.676Z,20.26
2022-08-26T04:16:55.363Z,20.26
2022-08-26T04:19:23.521Z,20.27
2022-08-26T04:21:53.128Z,20.28
2022-08-26T04:24:23.775Z,20.31
2022-08-26T04:26:51.237Z,20.31
2022-08-26T04:29:24.049Z,20.31
2022-08-26T04:31:55.509Z,20.32
2022-08-26T04:34:29.059Z,20.33
2022-08-26T04:36:57.925Z,20.38
2022-08-26T04:39:27.713Z,20.38
2022-08-26T04:41:55.589Z,20.39
2022-08-26T04:44:27.872Z,20.39
2022-08-26T04:46:56.661Z,20.43
2022-08-26T04:49:23.857Z,20.43
2022-08-26T04:51:53.718Z,20.44
2022-08-26T04:54:21.805Z,20.50
2022-08-26T04:56:50.665Z,20.48
2022-08-26T04:59:18.401Z,20.48
2022-08-26T05:01:49.268Z,20.49
2022-08-26T05:04:19.342Z,20.52
2022-08-26T05:06:50.341Z,20.51
2022-08-26T05:09:18.734Z,20.49
2022-08-26T05:11:48.529Z,20.52
2022-08-26T05:14:23.107Z,20.55
2022-08-26T05:16:50.522Z,20.55
2022-08-26T05:19:19.140Z,20.54
2022-08-26T05:21:48.405Z,20.54
2022-08-26T05:24:16.857Z,20.53
2022-08-26T05:26:47.275Z,20.52
2022-08-26T05:29:16.095Z,20.51
2022-08-26T05:31:43.750Z,20.55
2022-08-26T05:34:10.595Z,20.65
2022-08-26T05:36:40.305Z,20.67
2022-08-26T05:39:10.511Z,20.66
2022-08-26T05:41:41.205Z,20.67
2022-08-26T05:44:15.285Z,20.64
2022-08-26T05:46:44.731Z,20.62
2022-08-26T05:49:15.855Z,20.56
2022-08-26T05:51:47.519Z,20.56
2022-08-26T05:54:22.320Z,20.56
2022-08-26T05:56:51.976Z,20.61
2022-08-26T05:59:24.322Z,20.63
2022-08-26T06:01:53.242Z,20.66
2022-08-26T06:04:21.257Z,20.69
2022-08-26T06:06:48.526Z,20.71
2022-08-26T06:09:17.402Z,20.77
2022-08-26T06:11:48.311Z,20.81
2022-08-26T06:14:15.736Z,20.80
2022-08-26T06:16:45.049Z,20.80
2022-08-26T06:19:15.620Z,20.81
2022-08-26T06:21:47.861Z,20.83
2022-08-26T06:24:39.711Z,20.84
2022-08-26T06:27:13.392Z,20.85
2022-08-26T06:29:40.322Z,20.86
2022-08-26T06:32:07.439Z,20.86
2022-08-26T06:34:36.005Z,20.87
2022-08-26T06:37:03.669Z,20.90
2022-08-26T06:39:31.900Z,20.90
2022-08-26T06:42:00.431Z,20.94
2022-08-26T06:44:28.068Z,20.92
2022-08-26T06:46:55.130Z,21.00
2022-08-26T06:49:26.933Z,21.05
2022-08-26T06:51:59.723Z,21.07
2022-08-26T06:54:32.147Z,21.13
2022-08-26T06:56:59.624Z,21.19
2022-08-26T06:59:26.808Z,21.25
2022-08-26T07:01:54.682Z,21.33
2022-08-26T07:04:24.484Z,21.36
2022-08-26T07:06:53.740Z,21.43
2022-08-26T07:09:29.229Z,21.47
2022-08-26T07:11:56.911Z,21.56
2022-08-26T07:14:26.254Z,21.63
2022-08-26T07:16:53.499Z,21.62
2022-08-26T07:19:30.195Z,21.61
2022-08-26T07:22:04.235Z,21.57
2022-08-26T07:24:35.067Z,21.56
2022-08-26T07:27:06.127Z,21.63
2022-08-26T07:29:35.481Z,21.60
2022-08-26T07:32:03.568Z,21.50
2022-08-26T07:34:32.240Z,21.43
2022-08-26T07:37:00.614Z,21.42
2022-08-26T07:39:27.888Z,21.42
2022-08-26T07:41:55.760Z,21.46
2022-08-26T07:44:24.367Z,21.49
2022-08-26T07:46:53.025Z,21.52
2022-08-26T07:49:23.884Z,21.61
2022-08-26T07:51:51.696Z,21.67
2022-08-26T07:54:19.527Z,21.74
2022-08-26T07:56:48.251Z,21.78
2022-08-26T07:59:18.040Z,21.80
2022-08-26T08:01:46.749Z,21.84
2022-08-26T08:04:17.354Z,21.96
2022-08-26T08:06:45.865Z,22.05
2022-08-26T08:09:15.647Z,22.05
2022-08-26T08:11:45.006Z,22.07
2022-08-26T08:14:13.276Z,22.11
2022-08-26T08:16:45.823Z,22.12
2022-08-26T08:19:15.616Z,22.18
2022-08-26T08:21:43.843Z,22.24
2022-08-26T08:24:11.845Z,22.34
2022-08-26T08:26:39.467Z,22.43
2022-08-26T08:29:08.736Z,22.48
2022-08-26T08:31:56.908Z,22.54
2022-08-26T08:34:28.457Z,22.62
2022-08-26T08:36:57.175Z,22.71
2022-08-26T08:39:25.258Z,22.81
2022-08-26T08:42:05.966Z,22.88
2022-08-26T08:44:38.708Z,22.90
2022-08-26T08:47:20.762Z,22.93
2022-08-26T08:49:48.158Z,22.94
2022-08-26T08:52:32.114Z,22.96
2022-08-26T08:54:59.185Z,22.91
2022-08-26T08:58:07.897Z,22.81
2022-08-26T09:01:02.555Z,22.73
2022-08-26T09:04:01.662Z,22.62
2022-08-26T09:06:29.069Z,22.55
2022-08-26T09:08:57.589Z,22.53
2022-08-26T09:11:24.629Z,22.51
2022-08-26T09:13:55.011Z,22.45
2022-08-26T09:16:45.053Z,22.43
2022-08-26T09:19:31.033Z,22.42
2022-08-26T09:22:02.870Z,22.40
2022-08-26T09:24:41.287Z,22.44
2022-08-26T09:27:11.454Z,22.43
2022-08-26T09:29:44.845Z,22.41
2022-08-26T09:32:25.278Z,22.38
2022-08-26T09:35:08.357Z,22.34
2022-08-26T09:40:36.034Z,22.24
2022-08-26T09:43:22.673Z,22.20
2022-08-26T09:46:10.693Z,22.14
2022-08-26T09:48:41.059Z,22.12
2022-08-26T09:51:20.119Z,22.11
2022-08-26T09:54:01.594Z,22.02
2022-08-26T09:56:34.122Z,21.95
2022-08-26T09:59:03.187Z,21.82
2022-08-26T10:01:44.350Z,21.69
2022-08-26T10:04:20.911Z,21.59
2022-08-26T10:07:08.231Z,21.49
2022-08-26T10:09:43.101Z,21.43
2022-08-26T10:12:21.451Z,21.44
2022-08-26T10:14:59.704Z,21.46
2022-08-26T10:17:40.004Z,21.46
2022-08-26T10:20:23.262Z,21.43
2022-08-26T10:23:12.716Z,21.44
2022-08-26T10:25:53.948Z,21.43
2022-08-26T10:28:39.033Z,21.45
2022-08-26T10:31:40.722Z,21.53
2022-08-26T10:34:10.078Z,21.56
2022-08-26T10:40:27.310Z,21.54
2022-08-26T10:43:23.797Z,21.61
2022-08-26T10:46:00.649Z,21.63
2022-08-26T10:48:53.527Z,21.64
2022-08-26T10:51:35.501Z,21.64
2022-08-26T10:54:16.462Z,21.69
2022-08-26T10:57:06.509Z,21.79
2022-08-26T11:00:44.020Z,21.85
2022-08-26T11:03:45.889Z,21.90
2022-08-26T11:06:18.578Z,21.96
2022-08-26T11:09:01.556Z,22.01
2022-08-26T11:11:40.299Z,22.07
2022-08-26T11:14:28.721Z,22.10
2022-08-26T11:16:59.824Z,22.19
2022-08-26T11:19:59.044Z,22.28
2022-08-26T11:22:36.233Z,22.38
2022-08-26T11:25:09.508Z,22.45
2022-08-26T11:27:38.493Z,22.48
2022-08-26T11:30:07.558Z,22.54
2022-08-26T11:32:34.434Z,22.53
2022-08-26T11:35:13.724Z,22.52
2022-08-26T11:37:40.628Z,22.51
2022-08-26T11:40:15.636Z,22.56
2022-08-26T11:42:49.220Z,22.52
2022-08-26T11:45:35.179Z,22.46
2022-08-26T11:48:22.686Z,22.43
2022-08-26T11:51:01.682Z,22.40
2022-08-26T11:53:33.711Z,22.38
2022-08-26T11:56:08.051Z,22.36
2022-08-26T11:58:41.035Z,22.40
2022-08-26T12:01:11.617Z,22.42
2022-08-26T12:03:44.371Z,22.46
2022-08-26T12:06:23.691Z,22.43
2022-08-26T12:08:55.469Z,22.45
2022-08-26T12:11:29.578Z,22.57
2022-08-26T12:14:08.972Z,22.71
2022-08-26T12:16:39.776Z,22.78
2022-08-26T12:19:33.297Z,22.80
2022-08-26T12:22:23.531Z,22.82
2022-08-26T12:24:57.029Z,22.79
2022-08-26T12:27:30.259Z,22.80
2022-08-26T12:30:12.210Z,22.80
2022-08-26T12:32:58.187Z,22.76
2022-08-26T12:35:28.759Z,22.65
2022-08-26T12:37:57.620Z,22.62
2022-08-26T12:40:30.588Z,22.51
2022-08-26T12:43:00.675Z,22.39
2022-08-26T12:45:37.172Z,22.29
2022-08-26T12:48:29.631Z,22.22
2022-08-26T12:50:58.320Z,22.15
2022-08-26T12:53:32.313Z,22.08
2022-08-26T12:56:04.617Z,22.01
2022-08-26T12:58:35.654Z,21.96
2022-08-26T13:01:06.336Z,21.90
2022-08-26T13:03:40.258Z,21.91
2022-08-26T13:06:22.592Z,21.95
2022-08-26T13:09:06.196Z,21.95
2022-08-26T13:11:55.765Z,22.00
2022-08-26T13:14:24.845Z,22.06
2022-08-26T13:16:52.975Z,22.15
2022-08-26T13:19:25.402Z,22.22
2022-08-26T13:21:58.833Z,22.30
2022-08-26T13:24:43.867Z,22.28
2022-08-26T13:27:14.555Z,22.21
2022-08-26T13:29:41.705Z,22.17
2022-08-26T13:32:09.207Z,22.16
2022-08-26T13:34:38.208Z,22.16
2022-08-26T13:37:06.113Z,22.17
2022-08-26T13:39:33.437Z,22.15
2022-08-26T13:42:00.345Z,22.18
2022-08-26T13:44:27.753Z,22.24
2022-08-26T13:46:54.866Z,22.35
2022-08-26T13:49:22.547Z,22.43
2022-08-26T13:51:49.495Z,22.54
2022-08-26T13:54:16.512Z,22.71
2022-08-26T13:56:43.524Z,22.84
2022-08-26T13:59:10.730Z,22.93
2022-08-26T14:01:40.203Z,22.99
2022-08-26T14:04:07.454Z,23.01
2022-08-26T14:06:34.289Z,22.97
2022-08-26T14:09:01.178Z,22.92
2022-08-26T14:11:30.309Z,22.89
2022-08-26T14:14:17.002Z,22.85
2022-08-26T14:16:59.762Z,22.91
2022-08-26T14:19:29.971Z,22.94
2022-08-26T14:21:57.689Z,22.94
2022-08-26T14:24:24.542Z,23.02
2022-08-26T14:26:51.401Z,23.02
2022-08-26T14:29:18.270Z,23.02
2022-08-26T14:31:45.451Z,23.02
2022-08-26T14:34:14.112Z,22.96
2022-08-26T14:36:41.131Z,22.93
2022-08-26T14:39:11.734Z,22.85
2022-08-26T14:41:53.841Z,22.83
2022-08-26T14:44:26.947Z,22.75
2022-08-26T14:46:54.638Z,22.73
2022-08-26T14:49:24.144Z,22.67
2022-08-26T14:51:51.104Z,22.56
2022-08-26T14:54:20.646Z,22.46
2022-08-26T14:56:55.750Z,22.38
2022-08-26T14:59:35.856Z,22.32
2022-08-26T15:02:05.158Z,22.16
2022-08-26T15:04:32.229Z,21.95
2022-08-26T15:07:01.389Z,21.75
2022-08-26T15:09:32.352Z,21.63
2022-08-26T15:11:59.313Z,21.55
2022-08-26T15:14:30.932Z,21.63
2022-08-26T15:17:00.080Z,21.88
2022-08-26T15:19:27.707Z,22.25
2022-08-26T15:21:55.290Z,22.45
2022-08-26T15:24:25.424Z,22.84
2022-08-26T15:26:53.364Z,23.20
2022-08-26T15:29:22.686Z,23.53
2022-08-26T15:31:50.735Z,23.67
2022-08-26T15:34:18.316Z,23.53
2022-08-26T15:36:47.531Z,23.41
2022-08-26T15:39:17.470Z,23.31
2022-08-26T15:41:45.320Z,23.24
2022-08-26T15:44:14.294Z,23.13
2022-08-26T15:46:42.053Z,23.09
2022-08-26T15:49:16.919Z,23.10
2022-08-26T15:51:46.962Z,23.00
2022-08-26T15:54:16.653Z,22.92
2022-08-26T15:56:43.858Z,22.82
2022-08-26T15:59:11.693Z,22.67
2022-08-26T16:01:39.894Z,22.54
2022-08-26T16:04:07.469Z,22.34
2022-08-26T16:06:38.928Z,22.15
2022-08-26T16:09:07.411Z,22.01
2022-08-26T16:11:36.094Z,21.87
2022-08-26T16:14:04.670Z,21.80
2022-08-26T16:16:32.172Z,21.75
2022-08-26T16:18:59.878Z,21.75
2022-08-26T16:21:28.614Z,21.73
2022-08-26T16:23:56.546Z,21.70
2022-08-26T16:26:28.832Z,21.69
2022-08-26T16:28:55.788Z,21.68
2022-08-26T16:31:22.721Z,21.70
2022-08-26T16:33:50.225Z,21.77
2022-08-26T16:36:17.894Z,21.80
2022-08-26T16:38:56.340Z,21.82
2022-08-26T16:41:27.897Z,21.87
2022-08-26T16:43:55.487Z,21.90
2022-08-26T16:46:25.765Z,21.94
2022-08-26T16:48:56.030Z,21.99
2022-08-26T16:51:27.507Z,22.03
2022-08-26T16:53:58.331Z,22.02
2022-08-26T16:56:34.320Z,21.99
2022-08-26T16:59:06.026Z,21.94
2022-08-26T17:01:33.025Z,21.88
2022-08-26T17:04:00.086Z,21.83
2022-08-26T17:06:27.072Z,21.79
2022-08-26T17:08:54.076Z,21.80
2022-08-26T17:11:21.015Z,21.75
2022-08-26T17:13:47.847Z,21.72
2022-08-26T17:16:15.761Z,21.68
2022-08-26T17:18:42.713Z,21.74
2022-08-26T17:21:13.346Z,21.72
2022-08-26T17:23:42.902Z,21.67
2022-08-26T17:26:12.289Z,21.59
2022-08-26T17:28:39.981Z,21.56
2022-08-26T17:31:12.452Z,21.55
2022-08-26T17:33:40.643Z,21.53
2022-08-26T17:36:09.617Z,21.49
2022-08-26T17:38:38.125Z,21.43
2022-08-26T17:41:14.887Z,21.36
2022-08-26T17:43:42.005Z,21.33
2022-08-26T17:46:11.781Z,21.25
2022-08-26T17:48:43.449Z,21.18
2022-08-26T17:51:14.756Z,21.13
2022-08-26T17:53:42.842Z,21.12
2022-08-26T17:56:14.515Z,21.14
2022-08-26T17:58:51.054Z,21.11
2022-08-26T18:01:23.474Z,21.03
2022-08-26T18:03:51.579Z,21.02
2022-08-26T18:06:20.857Z,21.00
2022-08-26T18:08:48.319Z,20.97
2022-08-26T18:11:21.566Z,20.93
2022-08-26T18:13:48.518Z,20.91
2022-08-26T18:16:18.398Z,20.88
2022-08-26T18:18:47.474Z,20.83
2022-08-26T18:21:22.398Z,20.81
2022-08-26T18:23:51.516Z,20.76
2022-08-26T18:26:26.124Z,20.76
2022-08-26T18:28:53.836Z,20.72
2022-08-26T18:31:21.091Z,20.67
2022-08-26T18:33:48.160Z,20.62
2022-08-26T18:36:36.758Z,20.60
2022-08-26T18:39:06.471Z,20.55
2022-08-26T18:41:42.308Z,20.53
2022-08-26T18:44:13.459Z,20.49
2022-08-26T18:46:42.090Z,20.47
2022-08-26T18:49:12.748Z,20.46
2022-08-26T18:51:40.105Z,20.42
2022-08-26T18:54:08.243Z,20.41
2022-08-26T18:56:37.658Z,20.39
2022-08-26T18:59:06.882Z,20.38
2022-08-26T19:01:36.668Z,20.37
2022-08-26T19:04:06.027Z,20.34
2022-08-26T19:06:35.843Z,20.34
2022-08-26T19:09:04.965Z,20.33
2022-08-26T19:11:38.350Z,20.29
2022-08-26T19:14:14.008Z,20.26
2022-08-26T19:16:47.565Z,20.18
2022-08-26T19:19:15.139Z,20.16
2022-08-26T19:21:42.580Z,20.14
2022-08-26T19:24:17.556Z,20.11
2022-08-26T19:26:51.354Z,20.05
2022-08-26T19:29:29.102Z,20.03
2022-08-26T19:31:56.614Z,20.00
2022-08-26T19:34:24.137Z,19.98
2022-08-26T19:36:53.214Z,19.96
2022-08-26T19:39:21.381Z,19.95
2022-08-26T19:41:49.176Z,19.91
2022-08-26T19:44:39.486Z,19.90
2022-08-26T19:47:09.318Z,19.90
2022-08-26T19:49:37.570Z,19.87
2022-08-26T19:52:05.994Z,19.88
2022-08-26T19:54:33.520Z,19.86
2022-08-26T19:57:00.547Z,19.86
2022-08-26T19:59:27.526Z,19.85
2022-08-26T20:02:00.751Z,19.81
2022-08-26T20:04:31.042Z,19.79
2022-08-26T20:07:00.863Z,19.79
2022-08-26T20:09:30.404Z,19.79
2022-08-26T20:11:57.479Z,19.77
2022-08-26T20:14:26.427Z,19.77
2022-08-26T20:16:53.872Z,19.75
2022-08-26T20:19:39.341Z,19.74
2022-08-26T20:22:07.457Z,19.74
2022-08-26T20:24:35.536Z,19.74
2022-08-26T20:27:07.741Z,19.73
2022-08-26T20:29:36.933Z,19.73
2022-08-26T20:32:07.842Z,19.71
2022-08-26T20:34:36.372Z,19.71
2022-08-26T20:37:03.536Z,19.70
2022-08-26T20:39:30.452Z,19.70
2022-08-26T20:41:58.578Z,19.70
2022-08-26T20:44:25.758Z,19.74
2022-08-26T20:46:53.114Z,19.75
2022-08-26T20:49:19.968Z,19.77
2022-08-26T20:51:51.420Z,19.77
2022-08-26T20:54:23.941Z,19.74
2022-08-26T20:56:55.334Z,19.71
2022-08-26T20:59:22.649Z,19.71
2022-08-26T21:01:49.737Z,19.71
2022-08-26T21:04:21.692Z,19.71
2022-08-26T21:06:52.925Z,19.70
2022-08-26T21:09:25.487Z,19.69
2022-08-26T21:11:54.800Z,19.68
2022-08-26T21:14:25.739Z,19.66
2022-08-26T21:16:53.186Z,19.66
2022-08-26T21:19:20.212Z,19.60
2022-08-26T21:21:49.325Z,19.58
2022-08-26T21:24:17.544Z,19.56
2022-08-26T21:26:45.316Z,19.55
2022-08-26T21:29:13.738Z,19.56
2022-08-26T21:31:46.131Z,19.56
2022-08-26T21:34:18.286Z,19.56
2022-08-26T21:36:48.933Z,19.54
2022-08-26T21:39:19.004Z,19.53
2022-08-26T21:41:47.176Z,19.52
2022-08-26T21:44:17.130Z,19.49
2022-08-26T21:46:46.196Z,19.45
2022-08-26T21:49:18.265Z,19.44
2022-08-26T21:51:48.281Z,19.42
2022-08-26T21:54:18.106Z,19.42
2022-08-26T21:56:47.112Z,19.43
2022-08-26T21:59:18.641Z,19.43
2022-08-26T22:01:46.000Z,19.42
2022-08-26T22:04:13.252Z,19.39
2022-08-26T22:06:48.740Z,19.35
2022-08-26T22:09:20.294Z,19.31
2022-08-26T22:11:47.630Z,19.31
2022-08-26T22:14:17.426Z,19.29
2022-08-26T22:16:50.378Z,19.28
2022-08-26T22:19:20.226Z,19.23
2022-08-26T22:21:52.652Z,19.21
2022-08-26T22:24:23.182Z,19.17
2022-08-26T22:26:50.990Z,19.13
2022-08-26T22:29:18.677Z,19.11
2022-08-26T22:31:46.231Z,19.08
2022-08-26T22:34:17.311Z,19.03
2022-08-26T22:36:48.482Z,18.98
2022-08-26T22:39:23.721Z,18.99
2022-08-26T22:41:53.209Z,18.97
2022-08-26T22:44:22.235Z,18.98
2022-08-26T22:46:54.092Z,18.98
2022-08-26T22:49:21.760Z,18.91
2022-08-26T22:51:49.285Z,18.85
2022-08-26T22:54:16.805Z,18.81
2022-08-26T22:56:45.552Z,18.79
2022-08-26T22:59:13.462Z,18.76
2022-08-26T23:01:43.577Z,18.71
2022-08-26T23:04:11.765Z,18.64
2022-08-26T23:06:43.177Z,18.57
2022-08-26T23:09:14.711Z,18.50
2022-08-26T23:11:44.307Z,18.44
2022-08-26T23:14:11.224Z,18.39
2022-08-26T23:16:44.541Z,18.33
2022-08-26T23:19:14.513Z,18.25
2022-08-26T23:21:42.119Z,18.19
2022-08-26T23:24:10.021Z,18.13
2022-08-26T23:26:39.067Z,18.08
2022-08-26T23:29:08.370Z,18.03
2022-08-26T23:31:39.521Z,17.97
2022-08-26T23:34:25.346Z,17.89
2022-08-26T23:36:52.867Z,17.82
2022-08-26T23:39:21.221Z,17.77
2022-08-26T23:41:48.162Z,17.71
2022-08-26T23:44:14.982Z,17.68
2022-08-26T23:46:41.854Z,17.65
2022-08-26T23:49:08.795Z,17.61
2022-08-26T23:51:54.292Z,17.56
2022-08-26T23:54:21.137Z,17.52
2022-08-26T23:56:48.379Z,17.47
2022-08-26T23:59:15.622Z,17.44
